Terminal Aerodrome Forecast
Issued by NWS

Home | Current Version | Previous Version | Text Only | Print | Product List | Glossary On
Versions: 1 2 3 4 5 6 7 8 9 10 11 12 13 14 15 16 17 18 19
000
FTAK31 PAJN 271100
TAFAJN
TAF
PAJN 271139Z 2712/2812 07005KT P6SM BCFG FEW015 BKN025 OVC050
     FM271700 09006KT P6SM VCSH SCT025 BKN050
     FM280600 11005KT 5SM BR SCT030 OVC050=

USA.gov is the U.S. government's official web portal to all federal, state and local government web resources and services.